createdAt,value
2022-10-11T00:02:00.027Z,7.88
2022-10-11T00:06:03.825Z,6.72
2022-10-11T00:10:07.363Z,6.82
2022-10-11T00:14:09.022Z,6.85
2022-10-11T00:18:10.615Z,6.97
2022-10-11T00:22:12.248Z,6.97
2022-10-11T00:26:14.242Z,6.43
2022-10-11T00:30:15.789Z,6.63
2022-10-11T00:34:18.119Z,6.00
2022-10-11T00:38:20.259Z,6.45
2022-10-11T00:42:22.224Z,7.07
2022-10-11T00:46:30.057Z,6.55
2022-10-11T00:50:35.479Z,6.32
2022-10-11T00:54:41.872Z,7.45
2022-10-11T00:58:43.970Z,5.90
2022-10-11T01:02:46.347Z,5.65
2022-10-11T01:06:49.535Z,6.53
2022-10-11T01:10:51.959Z,6.00
2022-10-11T01:15:08.757Z,6.20
2022-10-11T01:19:35.027Z,6.13
2022-10-11T01:24:10.548Z,6.07
2022-10-11T01:28:26.506Z,5.88
2022-10-11T01:32:34.770Z,5.88
2022-10-11T01:36:42.462Z,5.70
2022-10-11T01:40:52.624Z,6.38
2022-10-11T01:44:55.443Z,5.47
2022-10-11T01:49:01.055Z,6.18
2022-10-11T01:53:30.728Z,5.88
2022-10-11T01:57:45.396Z,6.90
2022-10-11T02:02:22.413Z,5.90
2022-10-11T02:06:47.412Z,5.72
2022-10-11T02:11:01.775Z,5.80
2022-10-11T02:15:08.972Z,5.85
2022-10-11T02:19:15.056Z,5.63
2022-10-11T02:23:23.388Z,5.70
2022-10-11T02:27:29.507Z,4.85
2022-10-11T02:31:35.535Z,5.63
2022-10-11T02:40:26.674Z,5.53
2022-10-11T02:44:42.565Z,4.57
2022-10-11T02:48:44.232Z,5.90
2022-10-11T02:52:45.829Z,4.88
2022-10-11T02:56:47.373Z,5.28
2022-10-11T03:00:49.235Z,4.30
2022-10-11T03:04:50.773Z,4.50
2022-10-11T03:08:52.471Z,4.30
2022-10-11T03:12:54.043Z,4.90
2022-10-11T03:16:56.722Z,3.60
2022-10-11T03:21:02.277Z,4.18
2022-10-11T03:25:04.968Z,3.70
2022-10-11T03:29:06.692Z,3.00
2022-10-11T03:33:08.362Z,2.95
2022-10-11T03:37:10.082Z,3.10
2022-10-11T03:41:11.939Z,2.65
2022-10-11T03:45:14.417Z,2.38
2022-10-11T03:49:16.099Z,1.98
2022-10-11T03:53:17.761Z,2.03
2022-10-11T03:57:19.854Z,2.58
2022-10-11T04:01:21.425Z,1.60
2022-10-11T04:05:22.964Z,1.73
2022-10-11T04:09:24.647Z,2.03
2022-10-11T04:13:26.338Z,2.30
2022-10-11T04:17:27.980Z,1.60
2022-10-11T04:21:29.642Z,1.60
2022-10-11T04:25:31.215Z,1.50
2022-10-11T04:29:33.276Z,1.35
2022-10-11T04:33:34.860Z,1.70
2022-10-11T04:37:37.041Z,2.15
2022-10-11T04:41:38.750Z,1.27
2022-10-11T04:45:40.466Z,1.70
2022-10-11T04:49:42.035Z,1.27
2022-10-11T04:53:43.881Z,1.98
2022-10-11T04:57:45.560Z,1.60
2022-10-11T05:01:47.526Z,1.50
2022-10-11T05:05:49.627Z,1.58
2022-10-11T05:09:51.243Z,1.55
2022-10-11T05:13:53.049Z,1.40
2022-10-11T05:17:54.781Z,1.55
2022-10-11T05:21:57.313Z,1.88
2022-10-11T05:25:59.664Z,1.83
2022-10-11T05:30:01.941Z,2.28
2022-10-11T05:34:03.568Z,1.88
2022-10-11T05:38:05.198Z,1.67
2022-10-11T05:42:09.896Z,2.35
2022-10-11T05:46:12.744Z,1.50
2022-10-11T05:50:14.897Z,1.60
2022-10-11T05:54:16.529Z,2.17
2022-10-11T05:58:18.616Z,2.20
2022-10-11T06:02:20.886Z,3.50
2022-10-11T06:06:23.026Z,2.30
2022-10-11T06:10:25.243Z,2.03
2022-10-11T06:14:27.149Z,1.92
2022-10-11T06:18:28.865Z,2.47
2022-10-11T06:22:30.622Z,2.78
2022-10-11T06:26:32.683Z,2.28
2022-10-11T06:30:34.549Z,2.17
2022-10-11T06:34:36.222Z,2.72
2022-10-11T06:38:42.294Z,1.88
2022-10-11T06:42:49.608Z,2.20
2022-10-11T06:46:51.469Z,2.50
2022-10-11T06:51:00.078Z,2.10
2022-10-11T06:55:02.183Z,2.38
2022-10-11T06:59:03.855Z,2.35
2022-10-11T07:03:05.563Z,3.20
2022-10-11T07:07:07.119Z,2.17
2022-10-11T07:11:14.349Z,2.65
2022-10-11T07:15:16.003Z,3.03
2022-10-11T07:19:17.765Z,2.20
2022-10-11T07:23:19.302Z,2.45
2022-10-11T07:27:23.073Z,3.10
2022-10-11T07:31:26.316Z,2.33
2022-10-11T07:35:27.909Z,2.83
2022-10-11T07:39:31.028Z,3.10
2022-10-11T07:43:33.333Z,2.00
2022-10-11T07:47:34.920Z,2.20
2022-10-11T07:51:36.520Z,2.38
2022-10-11T07:55:42.411Z,2.75
2022-10-11T07:59:49.265Z,2.72
2022-10-11T08:03:52.711Z,2.63
2022-10-11T08:07:54.918Z,2.33
2022-10-11T08:11:56.488Z,2.25
2022-10-11T08:15:58.383Z,2.90
2022-10-11T08:20:00.031Z,2.13
2022-10-11T08:24:03.688Z,3.10
2022-10-11T08:28:05.523Z,2.08
2022-10-11T08:32:11.870Z,1.98
2022-10-11T08:36:13.883Z,2.38
2022-10-11T08:40:19.140Z,1.85
2022-10-11T08:45:09.645Z,2.55
2022-10-11T08:49:08.039Z,2.10
2022-10-11T08:53:21.617Z,2.30
2022-10-11T08:57:27.379Z,2.33
2022-10-11T09:01:31.019Z,2.45
2022-10-11T09:05:36.406Z,2.03
2022-10-11T09:10:02.006Z,2.10
2022-10-11T09:14:48.829Z,1.95
2022-10-11T09:19:18.208Z,2.05
2022-10-11T09:23:35.536Z,2.38
2022-10-11T09:32:16.156Z,2.47
2022-10-11T09:36:55.127Z,2.25
2022-10-11T09:41:22.935Z,1.88
2022-10-11T09:45:24.680Z,2.13
2022-10-11T09:49:36.995Z,2.00
2022-10-11T09:54:05.347Z,2.08
2022-10-11T09:58:28.556Z,1.80
2022-10-11T10:03:20.765Z,2.30
2022-10-11T10:07:23.244Z,1.83
2022-10-11T10:11:24.871Z,2.00
2022-10-11T10:15:30.184Z,2.13
2022-10-11T10:19:44.808Z,2.05
2022-10-11T10:23:54.688Z,1.83
2022-10-11T10:28:01.884Z,1.30
2022-10-11T10:32:15.000Z,1.20
2022-10-11T10:36:22.181Z,1.88
2022-10-11T10:40:39.098Z,1.67
2022-10-11T10:44:40.862Z,1.73
2022-10-11T10:49:48.362Z,1.45
2022-10-11T10:53:32.998Z,1.65
2022-10-11T10:57:46.014Z,1.77
2022-10-11T11:02:28.047Z,1.58
2022-10-11T11:06:48.783Z,2.05
2022-10-11T11:11:18.081Z,1.60
2022-10-11T11:15:47.965Z,1.83
2022-10-11T11:20:24.749Z,1.50
2022-10-11T11:24:45.047Z,1.30
2022-10-11T11:28:58.811Z,1.52
2022-10-11T11:33:03.188Z,1.38
2022-10-11T11:37:13.916Z,1.63
2022-10-11T11:41:28.231Z,1.20
2022-10-11T11:45:51.170Z,1.60
2022-10-11T11:50:02.688Z,2.05
2022-10-11T11:54:18.206Z,1.60
2022-10-11T11:58:50.171Z,1.55
2022-10-11T12:02:54.562Z,1.55
2022-10-11T12:07:22.389Z,1.55
2022-10-11T12:11:38.353Z,1.33
2022-10-11T12:15:53.013Z,1.30
2022-10-11T12:20:05.161Z,1.40
2022-10-11T12:24:15.568Z,1.20
2022-10-11T12:28:42.557Z,1.30
2022-10-11T12:32:44.117Z,1.40
2022-10-11T12:36:50.800Z,1.50
2022-10-11T12:40:56.962Z,1.40
2022-10-11T12:45:10.627Z,1.48
2022-10-11T12:49:45.044Z,1.55
2022-10-11T12:54:36.932Z,1.35
2022-10-11T12:58:43.831Z,1.48
2022-10-11T13:02:46.685Z,1.33
2022-10-11T13:07:01.083Z,1.83
2022-10-11T13:11:11.719Z,1.45
2022-10-11T13:15:17.489Z,1.60
2022-10-11T13:19:23.212Z,1.20
2022-10-11T13:23:26.440Z,1.00
2022-10-11T13:27:28.445Z,1.27
2022-10-11T13:31:30.092Z,1.30
2022-10-11T13:35:35.270Z,1.40
2022-10-11T13:39:39.075Z,1.10
2022-10-11T13:43:41.002Z,1.50
2022-10-11T13:47:42.755Z,1.17
2022-10-11T13:51:56.911Z,1.80
2022-10-11T13:56:07.884Z,1.38
2022-10-11T14:00:10.981Z,1.15
2022-10-11T14:04:17.096Z,1.30
2022-10-11T14:08:43.115Z,1.70
2022-10-11T14:12:56.822Z,1.33
2022-10-11T14:17:11.372Z,1.40
2022-10-11T14:21:38.389Z,1.20
2022-10-11T14:25:54.147Z,1.58
2022-10-11T14:30:45.693Z,1.58
2022-10-11T14:34:50.449Z,2.00
2022-10-11T14:38:54.062Z,1.80
2022-10-11T14:42:57.668Z,1.15
2022-10-11T14:47:30.202Z,1.45
2022-10-11T14:57:32.069Z,1.10
2022-10-11T15:01:33.913Z,1.27
2022-10-11T15:05:36.409Z,1.13
2022-10-11T15:09:38.180Z,1.05
2022-10-11T15:13:39.652Z,1.15
2022-10-11T15:17:41.232Z,1.08
2022-10-11T15:21:42.990Z,1.15
2022-10-11T15:25:44.767Z,1.20
2022-10-11T15:29:47.110Z,1.73
2022-10-11T15:33:49.726Z,1.20
2022-10-11T15:37:57.843Z,1.23
2022-10-11T15:42:00.245Z,1.70
2022-10-11T15:46:02.261Z,1.42
2022-10-11T15:50:13.572Z,1.20
2022-10-11T15:54:15.164Z,1.48
2022-10-11T15:58:24.817Z,1.35
2022-10-11T16:02:26.608Z,1.35
2022-10-11T16:06:28.360Z,1.35
2022-10-11T16:10:30.101Z,1.65
2022-10-11T16:14:31.811Z,1.90
2022-10-11T16:18:36.243Z,1.88
2022-10-11T16:22:38.829Z,1.20
2022-10-11T16:26:42.428Z,1.60
2022-10-11T16:31:11.015Z,1.38
2022-10-11T16:35:27.924Z,1.25
2022-10-11T16:39:33.698Z,1.70
2022-10-11T16:43:37.349Z,1.60
2022-10-11T16:48:29.014Z,2.33
2022-10-11T16:52:31.231Z,1.75
2022-10-11T16:56:38.889Z,1.90
2022-10-11T17:00:48.426Z,1.80
2022-10-11T17:04:53.950Z,2.38
2022-10-11T17:08:56.130Z,1.95
2022-10-11T17:12:57.737Z,1.90
2022-10-11T17:16:59.328Z,1.80
2022-10-11T17:21:07.219Z,2.13
2022-10-11T17:25:08.786Z,2.05
2022-10-11T17:30:01.708Z,2.20
2022-10-11T17:34:06.030Z,2.10
2022-10-11T17:38:12.277Z,3.33
2022-10-11T17:42:39.035Z,2.47
2022-10-11T17:47:07.005Z,2.45
2022-10-11T17:51:11.551Z,3.70
2022-10-11T17:55:44.471Z,4.07
2022-10-11T17:59:46.002Z,3.58
2022-10-11T18:04:04.171Z,3.55
2022-10-11T18:08:06.745Z,2.97
2022-10-11T18:12:12.385Z,4.00
2022-10-11T18:16:19.905Z,4.93
2022-10-11T18:20:22.352Z,3.92
2022-10-11T18:25:14.994Z,3.55
2022-10-11T18:29:18.221Z,3.28
2022-10-11T18:33:22.800Z,5.80
2022-10-11T18:37:24.961Z,4.07
2022-10-11T18:41:30.728Z,5.20
2022-10-11T18:45:32.451Z,4.97
2022-10-11T18:49:34.192Z,4.93
2022-10-11T18:53:36.818Z,5.05
2022-10-11T18:57:38.538Z,6.00
2022-10-11T19:01:43.997Z,4.93
2022-10-11T19:05:45.829Z,4.35
2022-10-11T19:09:48.151Z,5.35
2022-10-11T19:13:56.522Z,6.07
2022-10-11T19:18:25.771Z,5.65
2022-10-11T19:22:28.325Z,5.35
2022-10-11T19:26:39.470Z,5.63
2022-10-11T19:30:43.684Z,5.90
2022-10-11T19:34:45.357Z,5.18
2022-10-11T19:38:52.027Z,6.10
2022-10-11T19:42:53.824Z,5.50
2022-10-11T19:46:55.517Z,6.28
2022-10-11T19:51:09.348Z,5.93
2022-10-11T19:55:11.039Z,5.35
2022-10-11T19:59:14.519Z,5.85
2022-10-11T20:03:17.742Z,5.15
2022-10-11T20:07:20.554Z,5.53
2022-10-11T20:11:23.120Z,5.13
2022-10-11T20:15:25.986Z,5.25
2022-10-11T20:19:31.176Z,5.05
2022-10-11T20:29:59.944Z,5.18
2022-10-11T20:34:03.995Z,5.40
2022-10-11T20:38:05.906Z,5.35
2022-10-11T20:42:07.516Z,4.90
2022-10-11T20:46:12.279Z,4.82
2022-10-11T20:50:43.838Z,4.90
2022-10-11T20:54:45.837Z,4.82
2022-10-11T20:59:22.214Z,4.85
2022-10-11T21:09:25.683Z,5.18
2022-10-11T21:13:27.365Z,4.75
2022-10-11T21:17:29.124Z,4.18
2022-10-11T21:21:30.936Z,5.45
2022-10-11T21:25:33.346Z,5.07
2022-10-11T21:29:34.809Z,5.13
2022-10-11T21:33:37.045Z,4.47
2022-10-11T21:37:38.513Z,4.32
2022-10-11T21:41:42.177Z,4.25
2022-10-11T21:45:43.751Z,4.75
2022-10-11T21:49:45.517Z,3.97
2022-10-11T21:53:56.055Z,4.57
2022-10-11T21:57:57.905Z,4.50
2022-10-11T22:07:55.339Z,4.32
2022-10-11T22:11:57.329Z,4.25
2022-10-11T22:16:08.001Z,4.00
2022-10-11T22:20:09.739Z,4.18
2022-10-11T22:24:11.885Z,3.80
2022-10-11T22:28:13.814Z,4.13
2022-10-11T22:32:50.384Z,3.90
2022-10-11T22:37:41.824Z,3.97
2022-10-11T22:41:43.605Z,4.30
2022-10-11T22:45:45.393Z,4.10
2022-10-11T22:49:47.004Z,4.03
2022-10-11T22:53:48.672Z,4.35
2022-10-11T22:57:50.160Z,3.80
2022-10-11T23:01:51.611Z,4.20
2022-10-11T23:05:57.215Z,3.70
2022-10-11T23:09:58.870Z,4.10
2022-10-11T23:14:00.422Z,4.05
2022-10-11T23:18:01.910Z,3.80
2022-10-11T23:22:03.766Z,3.72
2022-10-11T23:26:12.346Z,3.80
2022-10-11T23:30:14.534Z,3.78
2022-10-11T23:34:16.035Z,3.85
2022-10-11T23:38:17.681Z,3.47
2022-10-11T23:42:19.199Z,3.17
2022-10-11T23:46:20.768Z,3.42
2022-10-11T23:50:22.311Z,3.33
2022-10-11T23:54:23.895Z,3.70
2022-10-11T23:58:25.464Z,3.65
